sensor_id;sensor_type;location;lat;lon;timestamp;P1;durP1;ratioP1;P2;durP2;ratioP2
5616;SDS011;2830;50.656;7.568;2023-03-14T00:01:11;12.87;;;1.90;;
5616;SDS011;2830;50.656;7.568;2023-03-14T00:03:40;11.73;;;1.50;;
5616;SDS011;2830;50.656;7.568;2023-03-14T00:06:07;10.90;;;1.50;;
5616;SDS011;2830;50.656;7.568;2023-03-14T00:08:40;15.57;;;2.00;;
5616;SDS011;2830;50.656;7.568;2023-03-14T00:11:10;14.03;;;1.57;;
5616;SDS011;2830;50.656;7.568;2023-03-14T00:13:38;9.37;;;1.47;;
5616;SDS011;2830;50.656;7.568;2023-03-14T00:16:06;11.07;;;2.23;;
5616;SDS011;2830;50.656;7.568;2023-03-14T00:18:34;11.27;;;1.30;;
5616;SDS011;2830;50.656;7.568;2023-03-14T00:21:02;11.57;;;1.30;;
5616;SDS011;2830;50.656;7.568;2023-03-14T00:23:30;10.53;;;1.83;;
5616;SDS011;2830;50.656;7.568;2023-03-14T00:26:02;15.80;;;1.77;;
5616;SDS011;2830;50.656;7.568;2023-03-14T00:28:30;9.43;;;1.53;;
5616;SDS011;2830;50.656;7.568;2023-03-14T00:30:57;11.80;;;1.80;;
5616;SDS011;2830;50.656;7.568;2023-03-14T00:33:24;13.97;;;2.30;;
5616;SDS011;2830;50.656;7.568;2023-03-14T00:38:25;12.50;;;1.87;;
5616;SDS011;2830;50.656;7.568;2023-03-14T00:40:53;13.37;;;1.30;;
5616;SDS011;2830;50.656;7.568;2023-03-14T00:43:20;10.50;;;1.60;;
5616;SDS011;2830;50.656;7.568;2023-03-14T00:45:50;13.43;;;1.70;;
5616;SDS011;2830;50.656;7.568;2023-03-14T00:48:18;11.40;;;2.00;;
5616;SDS011;2830;50.656;7.568;2023-03-14T00:50:46;10.80;;;1.60;;
5616;SDS011;2830;50.656;7.568;2023-03-14T00:53:13;12.53;;;1.70;;
5616;SDS011;2830;50.656;7.568;2023-03-14T00:55:40;12.53;;;2.00;;
5616;SDS011;2830;50.656;7.568;2023-03-14T00:58:09;13.20;;;1.40;;
5616;SDS011;2830;50.656;7.568;2023-03-14T01:00:37;24.33;;;3.23;;
5616;SDS011;2830;50.656;7.568;2023-03-14T01:03:05;11.77;;;1.50;;
5616;SDS011;2830;50.656;7.568;2023-03-14T01:05:32;12.20;;;2.00;;
5616;SDS011;2830;50.656;7.568;2023-03-14T01:08:00;10.83;;;1.93;;
5616;SDS011;2830;50.656;7.568;2023-03-14T01:10:27;15.27;;;1.97;;
5616;SDS011;2830;50.656;7.568;2023-03-14T01:12:53;13.73;;;1.70;;
5616;SDS011;2830;50.656;7.568;2023-03-14T01:15:20;17.57;;;1.93;;
5616;SDS011;2830;50.656;7.568;2023-03-14T01:17:47;13.10;;;2.20;;
5616;SDS011;2830;50.656;7.568;2023-03-14T01:20:14;16.10;;;2.00;;
5616;SDS011;2830;50.656;7.568;2023-03-14T01:22:41;13.23;;;1.70;;
5616;SDS011;2830;50.656;7.568;2023-03-14T01:25:14;12.80;;;1.90;;
5616;SDS011;2830;50.656;7.568;2023-03-14T01:27:42;17.00;;;2.10;;
5616;SDS011;2830;50.656;7.568;2023-03-14T01:30:10;13.37;;;1.73;;
5616;SDS011;2830;50.656;7.568;2023-03-14T01:32:37;14.67;;;2.07;;
5616;SDS011;2830;50.656;7.568;2023-03-14T01:35:05;21.50;;;2.30;;
5616;SDS011;2830;50.656;7.568;2023-03-14T01:37:31;12.30;;;2.57;;
5616;SDS011;2830;50.656;7.568;2023-03-14T01:39:58;13.53;;;2.00;;
5616;SDS011;2830;50.656;7.568;2023-03-14T01:42:25;12.40;;;2.00;;
5616;SDS011;2830;50.656;7.568;2023-03-14T01:44:58;11.33;;;2.00;;
5616;SDS011;2830;50.656;7.568;2023-03-14T01:47:26;16.73;;;2.10;;
5616;SDS011;2830;50.656;7.568;2023-03-14T01:49:54;15.97;;;2.40;;
5616;SDS011;2830;50.656;7.568;2023-03-14T01:52:32;14.50;;;2.10;;
5616;SDS011;2830;50.656;7.568;2023-03-14T01:55:14;12.47;;;1.87;;
5616;SDS011;2830;50.656;7.568;2023-03-14T01:57:49;14.00;;;2.10;;
5616;SDS011;2830;50.656;7.568;2023-03-14T02:00:20;14.30;;;1.67;;
5616;SDS011;2830;50.656;7.568;2023-03-14T02:02:53;11.70;;;1.43;;
5616;SDS011;2830;50.656;7.568;2023-03-14T02:05:28;12.93;;;1.70;;
5616;SDS011;2830;50.656;7.568;2023-03-14T02:07:59;13.37;;;1.50;;
5616;SDS011;2830;50.656;7.568;2023-03-14T02:10:35;14.03;;;3.70;;
5616;SDS011;2830;50.656;7.568;2023-03-14T02:13:05;13.77;;;2.03;;
5616;SDS011;2830;50.656;7.568;2023-03-14T02:15:32;13.43;;;2.40;;
5616;SDS011;2830;50.656;7.568;2023-03-14T02:17:59;16.43;;;2.27;;
5616;SDS011;2830;50.656;7.568;2023-03-14T02:20:28;13.93;;;2.50;;
5616;SDS011;2830;50.656;7.568;2023-03-14T02:23:23;18.63;;;2.20;;
5616;SDS011;2830;50.656;7.568;2023-03-14T02:26:16;15.77;;;1.97;;
5616;SDS011;2830;50.656;7.568;2023-03-14T02:28:57;13.10;;;2.43;;
5616;SDS011;2830;50.656;7.568;2023-03-14T02:31:24;15.07;;;2.20;;
5616;SDS011;2830;50.656;7.568;2023-03-14T02:33:51;12.40;;;2.10;;
5616;SDS011;2830;50.656;7.568;2023-03-14T02:36:18;15.50;;;2.63;;
5616;SDS011;2830;50.656;7.568;2023-03-14T02:38:47;15.33;;;1.80;;
5616;SDS011;2830;50.656;7.568;2023-03-14T02:41:21;15.97;;;3.43;;
5616;SDS011;2830;50.656;7.568;2023-03-14T02:43:48;12.27;;;2.30;;
5616;SDS011;2830;50.656;7.568;2023-03-14T02:46:16;12.70;;;1.87;;
5616;SDS011;2830;50.656;7.568;2023-03-14T02:48:50;15.93;;;2.80;;
5616;SDS011;2830;50.656;7.568;2023-03-14T02:51:21;12.57;;;2.03;;
5616;SDS011;2830;50.656;7.568;2023-03-14T02:53:49;14.63;;;2.10;;
5616;SDS011;2830;50.656;7.568;2023-03-14T02:56:15;10.30;;;1.83;;
5616;SDS011;2830;50.656;7.568;2023-03-14T02:58:42;15.77;;;2.30;;
5616;SDS011;2830;50.656;7.568;2023-03-14T03:01:09;14.63;;;2.40;;
5616;SDS011;2830;50.656;7.568;2023-03-14T03:03:35;14.07;;;1.63;;
5616;SDS011;2830;50.656;7.568;2023-03-14T03:06:02;12.70;;;1.87;;
5616;SDS011;2830;50.656;7.568;2023-03-14T03:08:29;11.73;;;1.90;;
5616;SDS011;2830;50.656;7.568;2023-03-14T03:10:57;13.83;;;2.10;;
5616;SDS011;2830;50.656;7.568;2023-03-14T03:13:24;12.07;;;2.10;;
5616;SDS011;2830;50.656;7.568;2023-03-14T03:15:51;14.20;;;1.80;;
5616;SDS011;2830;50.656;7.568;2023-03-14T03:18:18;17.40;;;2.07;;
5616;SDS011;2830;50.656;7.568;2023-03-14T03:20:44;14.10;;;2.47;;
5616;SDS011;2830;50.656;7.568;2023-03-14T03:23:12;15.40;;;2.80;;
5616;SDS011;2830;50.656;7.568;2023-03-14T03:25:38;13.03;;;2.27;;
5616;SDS011;2830;50.656;7.568;2023-03-14T03:28:05;18.47;;;3.20;;
5616;SDS011;2830;50.656;7.568;2023-03-14T03:30:37;20.77;;;2.30;;
5616;SDS011;2830;50.656;7.568;2023-03-14T03:33:07;14.40;;;1.80;;
5616;SDS011;2830;50.656;7.568;2023-03-14T03:35:34;15.93;;;2.17;;
5616;SDS011;2830;50.656;7.568;2023-03-14T03:38:08;14.97;;;2.00;;
5616;SDS011;2830;50.656;7.568;2023-03-14T03:40:35;10.40;;;1.43;;
5616;SDS011;2830;50.656;7.568;2023-03-14T03:43:01;11.73;;;1.80;;
5616;SDS011;2830;50.656;7.568;2023-03-14T03:45:30;18.50;;;2.10;;
5616;SDS011;2830;50.656;7.568;2023-03-14T03:47:56;22.47;;;2.70;;
5616;SDS011;2830;50.656;7.568;2023-03-14T03:50:23;13.97;;;2.67;;
5616;SDS011;2830;50.656;7.568;2023-03-14T03:52:51;13.63;;;1.90;;
5616;SDS011;2830;50.656;7.568;2023-03-14T03:55:18;10.70;;;1.70;;
5616;SDS011;2830;50.656;7.568;2023-03-14T03:57:44;17.97;;;2.27;;
5616;SDS011;2830;50.656;7.568;2023-03-14T04:00:11;12.17;;;1.63;;
5616;SDS011;2830;50.656;7.568;2023-03-14T04:02:38;15.43;;;1.90;;
5616;SDS011;2830;50.656;7.568;2023-03-14T04:05:05;16.50;;;2.70;;
5616;SDS011;2830;50.656;7.568;2023-03-14T04:07:32;14.80;;;1.80;;
5616;SDS011;2830;50.656;7.568;2023-03-14T04:09:59;13.93;;;2.00;;
5616;SDS011;2830;50.656;7.568;2023-03-14T04:12:26;11.97;;;2.27;;
5616;SDS011;2830;50.656;7.568;2023-03-14T04:14:52;21.70;;;2.20;;
5616;SDS011;2830;50.656;7.568;2023-03-14T04:17:19;13.77;;;2.43;;
5616;SDS011;2830;50.656;7.568;2023-03-14T04:19:47;14.00;;;1.80;;
5616;SDS011;2830;50.656;7.568;2023-03-14T04:22:17;13.57;;;1.50;;
5616;SDS011;2830;50.656;7.568;2023-03-14T04:24:44;13.20;;;1.63;;
5616;SDS011;2830;50.656;7.568;2023-03-14T04:27:10;11.53;;;1.23;;
5616;SDS011;2830;50.656;7.568;2023-03-14T04:29:37;9.57;;;1.97;;
5616;SDS011;2830;50.656;7.568;2023-03-14T04:32:04;10.30;;;1.50;;
5616;SDS011;2830;50.656;7.568;2023-03-14T04:34:30;9.20;;;1.03;;
5616;SDS011;2830;50.656;7.568;2023-03-14T04:36:57;11.77;;;1.40;;
5616;SDS011;2830;50.656;7.568;2023-03-14T04:39:24;16.03;;;1.37;;
5616;SDS011;2830;50.656;7.568;2023-03-14T04:41:50;10.10;;;0.90;;
5616;SDS011;2830;50.656;7.568;2023-03-14T04:44:17;11.10;;;1.20;;
5616;SDS011;2830;50.656;7.568;2023-03-14T04:46:44;9.37;;;1.10;;
5616;SDS011;2830;50.656;7.568;2023-03-14T04:49:10;12.73;;;1.10;;
5616;SDS011;2830;50.656;7.568;2023-03-14T04:51:37;9.50;;;0.97;;
5616;SDS011;2830;50.656;7.568;2023-03-14T04:54:07;14.20;;;1.70;;
5616;SDS011;2830;50.656;7.568;2023-03-14T04:56:34;11.20;;;1.60;;
5616;SDS011;2830;50.656;7.568;2023-03-14T04:59:01;10.47;;;1.10;;
5616;SDS011;2830;50.656;7.568;2023-03-14T05:01:27;8.40;;;1.00;;
5616;SDS011;2830;50.656;7.568;2023-03-14T05:03:54;8.30;;;0.93;;
5616;SDS011;2830;50.656;7.568;2023-03-14T05:06:21;9.53;;;0.90;;
5616;SDS011;2830;50.656;7.568;2023-03-14T05:08:47;9.10;;;0.80;;
5616;SDS011;2830;50.656;7.568;2023-03-14T05:11:14;9.07;;;1.37;;
5616;SDS011;2830;50.656;7.568;2023-03-14T05:13:41;9.37;;;0.90;;
5616;SDS011;2830;50.656;7.568;2023-03-14T05:16:08;9.67;;;1.33;;
5616;SDS011;2830;50.656;7.568;2023-03-14T05:18:36;12.00;;;1.20;;
5616;SDS011;2830;50.656;7.568;2023-03-14T05:21:04;9.07;;;0.93;;
5616;SDS011;2830;50.656;7.568;2023-03-14T05:23:31;9.20;;;1.00;;
5616;SDS011;2830;50.656;7.568;2023-03-14T05:25:58;10.50;;;1.13;;
5616;SDS011;2830;50.656;7.568;2023-03-14T05:28:25;9.03;;;1.10;;
5616;SDS011;2830;50.656;7.568;2023-03-14T05:30:51;8.50;;;0.80;;
5616;SDS011;2830;50.656;7.568;2023-03-14T05:33:18;8.63;;;1.10;;
5616;SDS011;2830;50.656;7.568;2023-03-14T05:35:44;9.17;;;1.13;;
5616;SDS011;2830;50.656;7.568;2023-03-14T05:38:11;13.57;;;1.10;;
5616;SDS011;2830;50.656;7.568;2023-03-14T05:40:38;9.30;;;0.73;;
5616;SDS011;2830;50.656;7.568;2023-03-14T05:43:04;9.43;;;0.93;;
5616;SDS011;2830;50.656;7.568;2023-03-14T05:45:34;9.70;;;0.80;;
5616;SDS011;2830;50.656;7.568;2023-03-14T05:48:01;9.70;;;0.73;;
5616;SDS011;2830;50.656;7.568;2023-03-14T05:50:28;9.67;;;1.10;;
5616;SDS011;2830;50.656;7.568;2023-03-14T05:52:54;9.67;;;1.00;;
5616;SDS011;2830;50.656;7.568;2023-03-14T05:55:21;11.30;;;1.10;;
5616;SDS011;2830;50.656;7.568;2023-03-14T05:57:47;9.60;;;0.80;;
5616;SDS011;2830;50.656;7.568;2023-03-14T06:00:14;10.63;;;1.13;;
5616;SDS011;2830;50.656;7.568;2023-03-14T06:02:41;9.17;;;1.37;;
5616;SDS011;2830;50.656;7.568;2023-03-14T06:05:08;9.27;;;0.87;;
5616;SDS011;2830;50.656;7.568;2023-03-14T06:07:35;8.70;;;0.70;;
5616;SDS011;2830;50.656;7.568;2023-03-14T06:10:02;8.70;;;0.77;;
5616;SDS011;2830;50.656;7.568;2023-03-14T06:12:29;8.60;;;1.10;;
5616;SDS011;2830;50.656;7.568;2023-03-14T06:14:56;7.83;;;0.63;;
5616;SDS011;2830;50.656;7.568;2023-03-14T06:17:23;8.80;;;0.60;;
5616;SDS011;2830;50.656;7.568;2023-03-14T06:19:49;7.53;;;0.50;;
5616;SDS011;2830;50.656;7.568;2023-03-14T06:22:16;7.90;;;0.50;;
5616;SDS011;2830;50.656;7.568;2023-03-14T06:24:43;8.40;;;0.60;;
5616;SDS011;2830;50.656;7.568;2023-03-14T06:27:09;9.13;;;0.70;;
5616;SDS011;2830;50.656;7.568;2023-03-14T06:29:37;7.60;;;0.50;;
5616;SDS011;2830;50.656;7.568;2023-03-14T06:32:04;9.70;;;0.63;;
5616;SDS011;2830;50.656;7.568;2023-03-14T06:34:31;8.30;;;0.70;;
5616;SDS011;2830;50.656;7.568;2023-03-14T06:36:57;8.20;;;0.60;;
5616;SDS011;2830;50.656;7.568;2023-03-14T06:39:24;11.13;;;0.90;;
5616;SDS011;2830;50.656;7.568;2023-03-14T06:41:51;8.80;;;0.67;;
5616;SDS011;2830;50.656;7.568;2023-03-14T06:44:18;7.47;;;0.47;;
5616;SDS011;2830;50.656;7.568;2023-03-14T06:46:45;7.73;;;0.60;;
5616;SDS011;2830;50.656;7.568;2023-03-14T06:49:12;7.77;;;0.63;;
5616;SDS011;2830;50.656;7.568;2023-03-14T06:51:38;8.40;;;0.60;;
5616;SDS011;2830;50.656;7.568;2023-03-14T06:54:05;8.17;;;0.60;;
5616;SDS011;2830;50.656;7.568;2023-03-14T06:56:32;9.33;;;0.67;;
5616;SDS011;2830;50.656;7.568;2023-03-14T06:58:58;8.63;;;0.70;;
5616;SDS011;2830;50.656;7.568;2023-03-14T07:01:26;8.20;;;0.70;;
5616;SDS011;2830;50.656;7.568;2023-03-14T07:03:55;7.87;;;0.70;;
5616;SDS011;2830;50.656;7.568;2023-03-14T07:06:23;7.90;;;0.70;;
5616;SDS011;2830;50.656;7.568;2023-03-14T07:08:50;7.80;;;0.70;;
5616;SDS011;2830;50.656;7.568;2023-03-14T07:11:17;7.73;;;0.57;;
5616;SDS011;2830;50.656;7.568;2023-03-14T07:13:44;7.63;;;0.50;;
5616;SDS011;2830;50.656;7.568;2023-03-14T07:16:10;8.53;;;0.80;;
5616;SDS011;2830;50.656;7.568;2023-03-14T07:18:37;9.50;;;0.90;;
5616;SDS011;2830;50.656;7.568;2023-03-14T07:21:05;7.80;;;0.70;;
5616;SDS011;2830;50.656;7.568;2023-03-14T07:23:32;8.40;;;0.80;;
5616;SDS011;2830;50.656;7.568;2023-03-14T07:25:59;8.30;;;0.90;;
5616;SDS011;2830;50.656;7.568;2023-03-14T07:28:26;8.27;;;0.73;;
5616;SDS011;2830;50.656;7.568;2023-03-14T07:30:56;8.73;;;0.80;;
5616;SDS011;2830;50.656;7.568;2023-03-14T07:33:23;8.20;;;0.70;;
5616;SDS011;2830;50.656;7.568;2023-03-14T07:35:49;10.40;;;1.27;;
5616;SDS011;2830;50.656;7.568;2023-03-14T07:38:16;10.23;;;1.00;;
5616;SDS011;2830;50.656;7.568;2023-03-14T07:40:44;8.00;;;0.60;;
5616;SDS011;2830;50.656;7.568;2023-03-14T07:43:11;11.00;;;1.07;;
5616;SDS011;2830;50.656;7.568;2023-03-14T07:45:38;8.80;;;1.00;;
5616;SDS011;2830;50.656;7.568;2023-03-14T07:48:08;9.80;;;1.33;;
5616;SDS011;2830;50.656;7.568;2023-03-14T07:50:35;8.93;;;0.80;;
5616;SDS011;2830;50.656;7.568;2023-03-14T07:53:01;8.47;;;0.80;;
5616;SDS011;2830;50.656;7.568;2023-03-14T07:55:28;8.43;;;0.60;;
5616;SDS011;2830;50.656;7.568;2023-03-14T07:57:54;8.30;;;0.77;;
5616;SDS011;2830;50.656;7.568;2023-03-14T08:00:21;10.20;;;0.87;;
5616;SDS011;2830;50.656;7.568;2023-03-14T08:02:48;7.87;;;0.50;;
5616;SDS011;2830;50.656;7.568;2023-03-14T08:05:15;9.70;;;0.73;;
5616;SDS011;2830;50.656;7.568;2023-03-14T08:07:41;9.27;;;0.77;;
5616;SDS011;2830;50.656;7.568;2023-03-14T08:10:08;10.50;;;1.00;;
5616;SDS011;2830;50.656;7.568;2023-03-14T08:12:35;8.90;;;0.80;;
5616;SDS011;2830;50.656;7.568;2023-03-14T08:15:02;8.40;;;0.60;;
5616;SDS011;2830;50.656;7.568;2023-03-14T08:17:29;8.63;;;0.73;;
5616;SDS011;2830;50.656;7.568;2023-03-14T08:19:55;8.60;;;0.70;;
5616;SDS011;2830;50.656;7.568;2023-03-14T08:22:22;8.33;;;0.60;;
5616;SDS011;2830;50.656;7.568;2023-03-14T08:24:49;8.33;;;0.50;;
5616;SDS011;2830;50.656;7.568;2023-03-14T08:27:15;9.93;;;0.80;;
5616;SDS011;2830;50.656;7.568;2023-03-14T08:29:42;9.17;;;0.90;;
5616;SDS011;2830;50.656;7.568;2023-03-14T08:32:09;8.80;;;0.50;;
5616;SDS011;2830;50.656;7.568;2023-03-14T08:34:36;8.80;;;0.60;;
5616;SDS011;2830;50.656;7.568;2023-03-14T08:37:03;9.10;;;0.60;;
5616;SDS011;2830;50.656;7.568;2023-03-14T08:39:41;9.70;;;1.40;;
5616;SDS011;2830;50.656;7.568;2023-03-14T08:42:08;8.87;;;0.70;;
5616;SDS011;2830;50.656;7.568;2023-03-14T08:44:34;8.97;;;0.50;;
5616;SDS011;2830;50.656;7.568;2023-03-14T08:47:01;9.17;;;0.70;;
5616;SDS011;2830;50.656;7.568;2023-03-14T08:49:27;10.17;;;0.60;;
5616;SDS011;2830;50.656;7.568;2023-03-14T08:51:54;8.97;;;0.60;;
5616;SDS011;2830;50.656;7.568;2023-03-14T08:54:21;8.97;;;0.53;;
5616;SDS011;2830;50.656;7.568;2023-03-14T08:56:47;8.93;;;0.57;;
5616;SDS011;2830;50.656;7.568;2023-03-14T08:59:14;8.93;;;0.70;;
5616;SDS011;2830;50.656;7.568;2023-03-14T09:01:41;8.67;;;0.50;;
5616;SDS011;2830;50.656;7.568;2023-03-14T09:04:07;8.83;;;0.50;;
5616;SDS011;2830;50.656;7.568;2023-03-14T09:06:35;8.60;;;0.50;;
5616;SDS011;2830;50.656;7.568;2023-03-14T09:09:02;8.77;;;0.60;;
5616;SDS011;2830;50.656;7.568;2023-03-14T09:11:30;8.97;;;0.50;;
5616;SDS011;2830;50.656;7.568;2023-03-14T09:13:57;8.53;;;0.50;;
5616;SDS011;2830;50.656;7.568;2023-03-14T09:16:24;8.67;;;0.50;;
5616;SDS011;2830;50.656;7.568;2023-03-14T09:18:51;8.57;;;0.50;;
5616;SDS011;2830;50.656;7.568;2023-03-14T09:21:20;8.63;;;0.50;;
5616;SDS011;2830;50.656;7.568;2023-03-14T09:23:47;14.83;;;4.37;;
5616;SDS011;2830;50.656;7.568;2023-03-14T09:26:15;9.40;;;1.13;;
5616;SDS011;2830;50.656;7.568;2023-03-14T09:28:41;8.67;;;0.50;;
5616;SDS011;2830;50.656;7.568;2023-03-14T09:31:09;8.70;;;0.67;;
5616;SDS011;2830;50.656;7.568;2023-03-14T09:33:36;8.73;;;0.60;;
5616;SDS011;2830;50.656;7.568;2023-03-14T09:36:04;9.30;;;0.50;;
5616;SDS011;2830;50.656;7.568;2023-03-14T09:38:31;8.73;;;0.50;;
5616;SDS011;2830;50.656;7.568;2023-03-14T09:40:59;8.80;;;0.50;;
5616;SDS011;2830;50.656;7.568;2023-03-14T09:43:31;8.50;;;0.50;;
5616;SDS011;2830;50.656;7.568;2023-03-14T09:46:01;8.43;;;0.60;;
5616;SDS011;2830;50.656;7.568;2023-03-14T09:48:30;8.47;;;0.50;;
5616;SDS011;2830;50.656;7.568;2023-03-14T09:51:00;8.90;;;0.60;;
5616;SDS011;2830;50.656;7.568;2023-03-14T09:53:39;8.37;;;0.50;;
5616;SDS011;2830;50.656;7.568;2023-03-14T09:56:17;8.30;;;0.50;;
5616;SDS011;2830;50.656;7.568;2023-03-14T09:59:00;8.27;;;0.50;;
5616;SDS011;2830;50.656;7.568;2023-03-14T10:01:32;8.43;;;0.60;;
5616;SDS011;2830;50.656;7.568;2023-03-14T10:04:00;10.80;;;0.60;;
5616;SDS011;2830;50.656;7.568;2023-03-14T10:06:40;8.40;;;0.57;;
5616;SDS011;2830;50.656;7.568;2023-03-14T10:09:10;10.03;;;0.60;;
5616;SDS011;2830;50.656;7.568;2023-03-14T10:11:43;7.90;;;0.60;;
5616;SDS011;2830;50.656;7.568;2023-03-14T10:14:10;8.50;;;0.70;;
5616;SDS011;2830;50.656;7.568;2023-03-14T10:16:44;7.87;;;0.60;;
5616;SDS011;2830;50.656;7.568;2023-03-14T10:19:13;8.93;;;0.60;;
5616;SDS011;2830;50.656;7.568;2023-03-14T10:21:44;7.73;;;0.57;;
5616;SDS011;2830;50.656;7.568;2023-03-14T10:26:54;7.57;;;0.60;;
5616;SDS011;2830;50.656;7.568;2023-03-14T10:29:31;7.80;;;0.60;;
5616;SDS011;2830;50.656;7.568;2023-03-14T10:34:29;8.50;;;0.70;;
5616;SDS011;2830;50.656;7.568;2023-03-14T10:37:18;8.10;;;0.80;;
5616;SDS011;2830;50.656;7.568;2023-03-14T10:39:52;9.33;;;1.00;;
5616;SDS011;2830;50.656;7.568;2023-03-14T10:42:22;8.17;;;0.67;;
5616;SDS011;2830;50.656;7.568;2023-03-14T10:44:56;8.17;;;0.70;;
5616;SDS011;2830;50.656;7.568;2023-03-14T10:47:27;13.83;;;0.80;;
5616;SDS011;2830;50.656;7.568;2023-03-14T10:49:55;8.30;;;0.70;;
5616;SDS011;2830;50.656;7.568;2023-03-14T10:52:24;8.70;;;0.80;;
5616;SDS011;2830;50.656;7.568;2023-03-14T10:55:16;8.90;;;1.00;;
5616;SDS011;2830;50.656;7.568;2023-03-14T10:57:43;10.83;;;1.20;;
5616;SDS011;2830;50.656;7.568;2023-03-14T11:05:25;8.90;;;1.17;;
5616;SDS011;2830;50.656;7.568;2023-03-14T11:08:07;8.67;;;1.20;;
5616;SDS011;2830;50.656;7.568;2023-03-14T11:10:47;9.73;;;1.13;;
5616;SDS011;2830;50.656;7.568;2023-03-14T11:13:39;8.50;;;0.97;;
5616;SDS011;2830;50.656;7.568;2023-03-14T11:16:22;8.20;;;0.90;;
5616;SDS011;2830;50.656;7.568;2023-03-14T11:27:42;8.70;;;1.40;;
5616;SDS011;2830;50.656;7.568;2023-03-14T11:31:03;9.83;;;1.20;;
5616;SDS011;2830;50.656;7.568;2023-03-14T11:33:16;9.40;;;1.07;;
5616;SDS011;2830;50.656;7.568;2023-03-14T11:35:59;9.00;;;1.20;;
5616;SDS011;2830;50.656;7.568;2023-03-14T11:41:09;8.87;;;1.20;;
5616;SDS011;2830;50.656;7.568;2023-03-14T11:43:52;9.40;;;1.13;;
5616;SDS011;2830;50.656;7.568;2023-03-14T11:51:46;8.37;;;1.10;;
5616;SDS011;2830;50.656;7.568;2023-03-14T12:00:01;8.30;;;1.20;;
5616;SDS011;2830;50.656;7.568;2023-03-14T12:10:54;8.50;;;1.10;;
5616;SDS011;2830;50.656;7.568;2023-03-14T12:13:27;9.90;;;1.23;;
5616;SDS011;2830;50.656;7.568;2023-03-14T12:15:56;14.47;;;1.00;;
5616;SDS011;2830;50.656;7.568;2023-03-14T12:18:29;8.70;;;1.10;;
5616;SDS011;2830;50.656;7.568;2023-03-14T12:20:59;9.40;;;1.33;;
5616;SDS011;2830;50.656;7.568;2023-03-14T12:23:34;12.53;;;1.40;;
5616;SDS011;2830;50.656;7.568;2023-03-14T12:26:15;8.67;;;1.00;;
5616;SDS011;2830;50.656;7.568;2023-03-14T12:28:49;8.50;;;1.10;;
5616;SDS011;2830;50.656;7.568;2023-03-14T12:34:02;9.53;;;1.33;;
5616;SDS011;2830;50.656;7.568;2023-03-14T12:41:44;9.17;;;0.80;;
5616;SDS011;2830;50.656;7.568;2023-03-14T12:47:00;8.00;;;0.70;;
5616;SDS011;2830;50.656;7.568;2023-03-14T12:49:44;9.40;;;0.70;;
5616;SDS011;2830;50.656;7.568;2023-03-14T12:59:59;8.63;;;0.73;;
5616;SDS011;2830;50.656;7.568;2023-03-14T13:02:37;8.07;;;0.80;;
5616;SDS011;2830;50.656;7.568;2023-03-14T13:05:11;8.37;;;0.90;;
5616;SDS011;2830;50.656;7.568;2023-03-14T13:12:38;8.80;;;0.98;;
5616;SDS011;2830;50.656;7.568;2023-03-14T13:15:18;8.63;;;1.90;;
5616;SDS011;2830;50.656;7.568;2023-03-14T13:17:59;10.32;;;1.80;;
5616;SDS011;2830;50.656;7.568;2023-03-14T13:20:34;10.70;;;1.63;;
5616;SDS011;2830;50.656;7.568;2023-03-14T13:23:04;10.30;;;2.40;;
5616;SDS011;2830;50.656;7.568;2023-03-14T13:25:34;10.93;;;2.30;;
5616;SDS011;2830;50.656;7.568;2023-03-14T13:28:02;13.37;;;3.47;;
5616;SDS011;2830;50.656;7.568;2023-03-14T13:30:38;13.57;;;4.57;;
5616;SDS011;2830;50.656;7.568;2023-03-14T13:33:11;12.17;;;4.07;;
5616;SDS011;2830;50.656;7.568;2023-03-14T13:35:41;11.90;;;4.10;;
5616;SDS011;2830;50.656;7.568;2023-03-14T13:38:20;14.60;;;3.93;;
5616;SDS011;2830;50.656;7.568;2023-03-14T13:40:49;11.90;;;4.73;;
5616;SDS011;2830;50.656;7.568;2023-03-14T13:43:18;12.63;;;4.80;;
5616;SDS011;2830;50.656;7.568;2023-03-14T13:48:34;12.60;;;5.27;;
5616;SDS011;2830;50.656;7.568;2023-03-14T13:51:06;14.17;;;6.40;;
5616;SDS011;2830;50.656;7.568;2023-03-14T13:53:50;12.93;;;5.60;;
5616;SDS011;2830;50.656;7.568;2023-03-14T13:56:21;13.97;;;5.20;;
5616;SDS011;2830;50.656;7.568;2023-03-14T13:58:50;14.37;;;5.77;;
5616;SDS011;2830;50.656;7.568;2023-03-14T14:01:32;14.73;;;5.67;;
5616;SDS011;2830;50.656;7.568;2023-03-14T14:04:07;14.60;;;5.40;;
5616;SDS011;2830;50.656;7.568;2023-03-14T14:06:36;13.60;;;5.43;;
5616;SDS011;2830;50.656;7.568;2023-03-14T14:09:12;13.20;;;5.57;;
5616;SDS011;2830;50.656;7.568;2023-03-14T14:11:54;14.73;;;5.97;;
5616;SDS011;2830;50.656;7.568;2023-03-14T14:14:49;15.17;;;6.60;;
5616;SDS011;2830;50.656;7.568;2023-03-14T14:17:21;13.37;;;5.83;;
5616;SDS011;2830;50.656;7.568;2023-03-14T14:20:16;16.63;;;6.38;;
5616;SDS011;2830;50.656;7.568;2023-03-14T14:22:48;15.63;;;6.10;;
5616;SDS011;2830;50.656;7.568;2023-03-14T14:25:16;13.37;;;5.57;;
5616;SDS011;2830;50.656;7.568;2023-03-14T14:27:44;18.73;;;7.10;;
5616;SDS011;2830;50.656;7.568;2023-03-14T14:32:44;14.67;;;4.23;;
5616;SDS011;2830;50.656;7.568;2023-03-14T14:35:32;12.20;;;4.70;;
5616;SDS011;2830;50.656;7.568;2023-03-14T14:38:00;14.37;;;4.50;;
5616;SDS011;2830;50.656;7.568;2023-03-14T14:40:29;13.40;;;4.80;;
5616;SDS011;2830;50.656;7.568;2023-03-14T14:43:03;11.60;;;4.07;;
5616;SDS011;2830;50.656;7.568;2023-03-14T14:45:33;18.37;;;5.03;;
5616;SDS011;2830;50.656;7.568;2023-03-14T14:50:28;14.52;;;4.78;;
5616;SDS011;2830;50.656;7.568;2023-03-14T14:52:59;11.90;;;4.60;;
5616;SDS011;2830;50.656;7.568;2023-03-14T14:55:34;12.07;;;4.60;;
5616;SDS011;2830;50.656;7.568;2023-03-14T14:58:22;11.40;;;3.53;;
5616;SDS011;2830;50.656;7.568;2023-03-14T15:00:59;14.75;;;5.55;;
5616;SDS011;2830;50.656;7.568;2023-03-14T15:03:31;11.52;;;3.50;;
5616;SDS011;2830;50.656;7.568;2023-03-14T15:05:59;9.63;;;1.92;;
5616;SDS011;2830;50.656;7.568;2023-03-14T15:08:26;10.90;;;2.10;;
5616;SDS011;2830;50.656;7.568;2023-03-14T15:10:54;10.80;;;2.70;;
5616;SDS011;2830;50.656;7.568;2023-03-14T15:13:22;11.25;;;2.55;;
5616;SDS011;2830;50.656;7.568;2023-03-14T15:15:49;10.25;;;3.20;;
5616;SDS011;2830;50.656;7.568;2023-03-14T15:18:22;12.35;;;2.80;;
5616;SDS011;2830;50.656;7.568;2023-03-14T15:20:51;14.93;;;2.60;;
5616;SDS011;2830;50.656;7.568;2023-03-14T15:23:18;13.93;;;3.42;;
5616;SDS011;2830;50.656;7.568;2023-03-14T15:25:46;11.05;;;2.92;;
5616;SDS011;2830;50.656;7.568;2023-03-14T15:28:24;11.95;;;3.35;;
5616;SDS011;2830;50.656;7.568;2023-03-14T15:30:53;12.73;;;3.25;;
5616;SDS011;2830;50.656;7.568;2023-03-14T15:33:21;11.30;;;3.03;;
5616;SDS011;2830;50.656;7.568;2023-03-14T15:35:49;18.90;;;3.03;;
5616;SDS011;2830;50.656;7.568;2023-03-14T15:38:18;11.07;;;3.13;;
5616;SDS011;2830;50.656;7.568;2023-03-14T15:40:49;11.20;;;3.50;;
5616;SDS011;2830;50.656;7.568;2023-03-14T15:43:16;25.08;;;3.80;;
5616;SDS011;2830;50.656;7.568;2023-03-14T15:45:45;17.75;;;5.97;;
5616;SDS011;2830;50.656;7.568;2023-03-14T15:48:16;13.45;;;3.63;;
5616;SDS011;2830;50.656;7.568;2023-03-14T15:50:48;12.95;;;4.20;;
5616;SDS011;2830;50.656;7.568;2023-03-14T15:53:15;12.35;;;3.40;;
5616;SDS011;2830;50.656;7.568;2023-03-14T15:55:41;11.02;;;3.25;;
5616;SDS011;2830;50.656;7.568;2023-03-14T15:58:10;12.43;;;3.10;;
5616;SDS011;2830;50.656;7.568;2023-03-14T16:00:46;13.55;;;3.20;;
5616;SDS011;2830;50.656;7.568;2023-03-14T16:03:13;11.32;;;3.42;;
5616;SDS011;2830;50.656;7.568;2023-03-14T16:05:40;15.73;;;3.42;;
5616;SDS011;2830;50.656;7.568;2023-03-14T16:08:07;13.60;;;3.45;;
5616;SDS011;2830;50.656;7.568;2023-03-14T16:10:34;12.90;;;3.55;;
5616;SDS011;2830;50.656;7.568;2023-03-14T16:13:01;12.95;;;3.50;;
5616;SDS011;2830;50.656;7.568;2023-03-14T16:15:27;15.63;;;4.00;;
5616;SDS011;2830;50.656;7.568;2023-03-14T16:17:54;11.43;;;3.53;;
5616;SDS011;2830;50.656;7.568;2023-03-14T16:20:22;15.73;;;4.25;;
5616;SDS011;2830;50.656;7.568;2023-03-14T16:22:49;20.83;;;4.20;;
5616;SDS011;2830;50.656;7.568;2023-03-14T16:25:16;16.88;;;4.03;;
5616;SDS011;2830;50.656;7.568;2023-03-14T16:27:44;18.27;;;4.13;;
5616;SDS011;2830;50.656;7.568;2023-03-14T16:30:11;19.67;;;5.15;;
5616;SDS011;2830;50.656;7.568;2023-03-14T16:32:39;17.92;;;4.07;;
5616;SDS011;2830;50.656;7.568;2023-03-14T16:35:06;17.38;;;4.30;;
5616;SDS011;2830;50.656;7.568;2023-03-14T16:37:33;17.80;;;4.05;;